sensor_id;sensor_type;location;lat;lon;timestamp;P1;durP1;ratioP1;P2;durP2;ratioP2
40204;SDS011;26963;42.666;23.366;2023-04-03T00:00:21;10.23;;;7.18;;
40204;SDS011;26963;42.666;23.366;2023-04-03T00:02:47;10.75;;;7.25;;
40204;SDS011;26963;42.666;23.366;2023-04-03T00:05:13;10.40;;;6.28;;
40204;SDS011;26963;42.666;23.366;2023-04-03T00:07:38;9.20;;;6.82;;
40204;SDS011;26963;42.666;23.366;2023-04-03T00:10:04;8.25;;;5.72;;
40204;SDS011;26963;42.666;23.366;2023-04-03T00:12:30;8.27;;;5.32;;
40204;SDS011;26963;42.666;23.366;2023-04-03T00:14:56;7.32;;;4.82;;
40204;SDS011;26963;42.666;23.366;2023-04-03T00:17:21;9.02;;;5.50;;
40204;SDS011;26963;42.666;23.366;2023-04-03T00:19:47;10.75;;;6.38;;
40204;SDS011;26963;42.666;23.366;2023-04-03T00:22:12;8.50;;;6.38;;
40204;SDS011;26963;42.666;23.366;2023-04-03T00:24:38;9.90;;;6.05;;
40204;SDS011;26963;42.666;23.366;2023-04-03T00:27:03;12.23;;;7.07;;
40204;SDS011;26963;42.666;23.366;2023-04-03T00:29:29;10.43;;;7.47;;
40204;SDS011;26963;42.666;23.366;2023-04-03T00:31:54;12.60;;;7.78;;
40204;SDS011;26963;42.666;23.366;2023-04-03T00:34:20;11.60;;;7.65;;
40204;SDS011;26963;42.666;23.366;2023-04-03T00:36:45;10.82;;;7.13;;
40204;SDS011;26963;42.666;23.366;2023-04-03T00:39:10;11.93;;;7.90;;
40204;SDS011;26963;42.666;23.366;2023-04-03T00:41:36;10.13;;;6.97;;
40204;SDS011;26963;42.666;23.366;2023-04-03T00:44:18;10.02;;;6.03;;
40204;SDS011;26963;42.666;23.366;2023-04-03T00:46:45;8.52;;;6.05;;
40204;SDS011;26963;42.666;23.366;2023-04-03T00:49:10;9.43;;;5.97;;
40204;SDS011;26963;42.666;23.366;2023-04-03T00:51:36;9.65;;;5.47;;
40204;SDS011;26963;42.666;23.366;2023-04-03T00:54:02;10.00;;;5.38;;
40204;SDS011;26963;42.666;23.366;2023-04-03T00:56:30;8.07;;;5.25;;
40204;SDS011;26963;42.666;23.366;2023-04-03T00:59:01;8.32;;;4.90;;
40204;SDS011;26963;42.666;23.366;2023-04-03T01:01:31;9.85;;;4.88;;
40204;SDS011;26963;42.666;23.366;2023-04-03T01:04:00;8.10;;;5.03;;
40204;SDS011;26963;42.666;23.366;2023-04-03T01:06:29;7.22;;;5.18;;
40204;SDS011;26963;42.666;23.366;2023-04-03T01:08:58;8.32;;;4.85;;
40204;SDS011;26963;42.666;23.366;2023-04-03T01:11:24;9.95;;;5.47;;
40204;SDS011;26963;42.666;23.366;2023-04-03T01:13:51;7.38;;;4.60;;
40204;SDS011;26963;42.666;23.366;2023-04-03T01:16:17;7.50;;;4.10;;
40204;SDS011;26963;42.666;23.366;2023-04-03T01:18:43;7.68;;;4.45;;
40204;SDS011;26963;42.666;23.366;2023-04-03T01:26:44;7.43;;;3.58;;
40204;SDS011;26963;42.666;23.366;2023-04-03T01:29:10;4.60;;;3.10;;
40204;SDS011;26963;42.666;23.366;2023-04-03T01:34:40;7.63;;;4.60;;
40204;SDS011;26963;42.666;23.366;2023-04-03T01:37:06;7.72;;;5.15;;
40204;SDS011;26963;42.666;23.366;2023-04-03T01:39:31;9.45;;;4.70;;
40204;SDS011;26963;42.666;23.366;2023-04-03T01:42:00;10.98;;;5.55;;
40204;SDS011;26963;42.666;23.366;2023-04-03T01:44:26;9.30;;;5.80;;
40204;SDS011;26963;42.666;23.366;2023-04-03T01:46:51;6.53;;;4.18;;
40204;SDS011;26963;42.666;23.366;2023-04-03T01:49:17;5.82;;;3.78;;
40204;SDS011;26963;42.666;23.366;2023-04-03T01:51:42;5.88;;;3.58;;
40204;SDS011;26963;42.666;23.366;2023-04-03T01:54:08;7.47;;;4.55;;
40204;SDS011;26963;42.666;23.366;2023-04-03T01:56:33;11.88;;;7.20;;
40204;SDS011;26963;42.666;23.366;2023-04-03T01:58:59;11.43;;;6.85;;
40204;SDS011;26963;42.666;23.366;2023-04-03T02:01:25;13.27;;;7.80;;
40204;SDS011;26963;42.666;23.366;2023-04-03T02:03:51;16.27;;;9.98;;
40204;SDS011;26963;42.666;23.366;2023-04-03T02:06:16;16.45;;;8.75;;
40204;SDS011;26963;42.666;23.366;2023-04-03T02:08:42;16.73;;;9.48;;
40204;SDS011;26963;42.666;23.366;2023-04-03T02:11:07;15.18;;;9.95;;
40204;SDS011;26963;42.666;23.366;2023-04-03T02:13:33;14.95;;;9.10;;
40204;SDS011;26963;42.666;23.366;2023-04-03T02:15:58;13.40;;;8.98;;
40204;SDS011;26963;42.666;23.366;2023-04-03T02:18:24;13.93;;;7.75;;
40204;SDS011;26963;42.666;23.366;2023-04-03T02:20:50;12.63;;;6.90;;
40204;SDS011;26963;42.666;23.366;2023-04-03T02:23:15;13.93;;;6.68;;
40204;SDS011;26963;42.666;23.366;2023-04-03T02:25:41;10.05;;;6.03;;
40204;SDS011;26963;42.666;23.366;2023-04-03T02:28:06;11.07;;;5.72;;
40204;SDS011;26963;42.666;23.366;2023-04-03T02:30:32;10.80;;;5.95;;
40204;SDS011;26963;42.666;23.366;2023-04-03T02:32:58;8.30;;;5.90;;
40204;SDS011;26963;42.666;23.366;2023-04-03T02:35:23;8.70;;;5.68;;
40204;SDS011;26963;42.666;23.366;2023-04-03T02:37:49;8.90;;;6.10;;
40204;SDS011;26963;42.666;23.366;2023-04-03T02:40:14;11.73;;;5.97;;
40204;SDS011;26963;42.666;23.366;2023-04-03T02:42:40;9.15;;;4.70;;
40204;SDS011;26963;42.666;23.366;2023-04-03T02:45:06;7.15;;;4.85;;
40204;SDS011;26963;42.666;23.366;2023-04-03T02:47:32;8.55;;;4.97;;
40204;SDS011;26963;42.666;23.366;2023-04-03T02:49:57;9.75;;;5.03;;
40204;SDS011;26963;42.666;23.366;2023-04-03T02:52:23;10.15;;;4.90;;
40204;SDS011;26963;42.666;23.366;2023-04-03T02:54:49;7.82;;;4.50;;
40204;SDS011;26963;42.666;23.366;2023-04-03T02:57:14;8.20;;;4.70;;
40204;SDS011;26963;42.666;23.366;2023-04-03T02:59:40;10.98;;;4.90;;
40204;SDS011;26963;42.666;23.366;2023-04-03T03:02:06;9.15;;;5.00;;
40204;SDS011;26963;42.666;23.366;2023-04-03T03:04:32;7.28;;;4.70;;
40204;SDS011;26963;42.666;23.366;2023-04-03T03:06:58;10.80;;;5.60;;
40204;SDS011;26963;42.666;23.366;2023-04-03T03:09:24;12.75;;;5.78;;
40204;SDS011;26963;42.666;23.366;2023-04-03T03:11:50;11.13;;;4.80;;
40204;SDS011;26963;42.666;23.366;2023-04-03T03:14:16;7.88;;;5.25;;
40204;SDS011;26963;42.666;23.366;2023-04-03T03:16:41;8.63;;;5.30;;
40204;SDS011;26963;42.666;23.366;2023-04-03T03:19:07;8.77;;;5.05;;
40204;SDS011;26963;42.666;23.366;2023-04-03T03:21:32;8.57;;;4.88;;
40204;SDS011;26963;42.666;23.366;2023-04-03T03:23:58;6.82;;;4.57;;
40204;SDS011;26963;42.666;23.366;2023-04-03T03:26:24;6.10;;;4.07;;
40204;SDS011;26963;42.666;23.366;2023-04-03T03:28:50;10.05;;;4.88;;
40204;SDS011;26963;42.666;23.366;2023-04-03T03:31:15;6.85;;;4.32;;
40204;SDS011;26963;42.666;23.366;2023-04-03T03:33:41;9.10;;;4.70;;
40204;SDS011;26963;42.666;23.366;2023-04-03T03:36:06;9.50;;;4.35;;
40204;SDS011;26963;42.666;23.366;2023-04-03T03:38:32;9.18;;;4.18;;
40204;SDS011;26963;42.666;23.366;2023-04-03T03:40:58;7.20;;;4.22;;
40204;SDS011;26963;42.666;23.366;2023-04-03T03:43:23;9.52;;;4.82;;
40204;SDS011;26963;42.666;23.366;2023-04-03T03:45:50;9.25;;;5.45;;
40204;SDS011;26963;42.666;23.366;2023-04-03T03:48:17;12.75;;;6.78;;
40204;SDS011;26963;42.666;23.366;2023-04-03T03:50:44;11.90;;;6.60;;
40204;SDS011;26963;42.666;23.366;2023-04-03T03:53:10;10.10;;;5.95;;
40204;SDS011;26963;42.666;23.366;2023-04-03T03:55:35;11.07;;;4.97;;
40204;SDS011;26963;42.666;23.366;2023-04-03T03:58:01;10.55;;;4.80;;
40204;SDS011;26963;42.666;23.366;2023-04-03T04:00:27;11.35;;;6.50;;
40204;SDS011;26963;42.666;23.366;2023-04-03T04:02:56;12.30;;;5.45;;
40204;SDS011;26963;42.666;23.366;2023-04-03T04:05:21;9.93;;;5.28;;
40204;SDS011;26963;42.666;23.366;2023-04-03T04:07:47;11.55;;;5.32;;
40204;SDS011;26963;42.666;23.366;2023-04-03T04:10:13;7.40;;;3.85;;
40204;SDS011;26963;42.666;23.366;2023-04-03T04:12:39;9.38;;;4.68;;
40204;SDS011;26963;42.666;23.366;2023-04-03T04:15:05;10.60;;;4.38;;
40204;SDS011;26963;42.666;23.366;2023-04-03T04:17:31;11.98;;;4.57;;
40204;SDS011;26963;42.666;23.366;2023-04-03T04:19:56;10.27;;;5.15;;
40204;SDS011;26963;42.666;23.366;2023-04-03T04:22:25;9.90;;;4.82;;
40204;SDS011;26963;42.666;23.366;2023-04-03T04:24:50;8.77;;;5.03;;
40204;SDS011;26963;42.666;23.366;2023-04-03T04:27:16;11.30;;;5.38;;
40204;SDS011;26963;42.666;23.366;2023-04-03T04:29:41;11.80;;;5.10;;
40204;SDS011;26963;42.666;23.366;2023-04-03T04:32:07;16.15;;;4.88;;
40204;SDS011;26963;42.666;23.366;2023-04-03T04:34:33;10.45;;;5.93;;
40204;SDS011;26963;42.666;23.366;2023-04-03T04:37:00;9.63;;;5.35;;
40204;SDS011;26963;42.666;23.366;2023-04-03T04:39:25;14.77;;;6.65;;
40204;SDS011;26963;42.666;23.366;2023-04-03T04:41:51;14.82;;;7.28;;
40204;SDS011;26963;42.666;23.366;2023-04-03T04:44:16;18.73;;;9.35;;
40204;SDS011;26963;42.666;23.366;2023-04-03T04:46:42;11.15;;;6.20;;
40204;SDS011;26963;42.666;23.366;2023-04-03T04:49:08;11.88;;;5.82;;
40204;SDS011;26963;42.666;23.366;2023-04-03T04:51:33;15.32;;;6.90;;
40204;SDS011;26963;42.666;23.366;2023-04-03T04:53:59;22.13;;;7.90;;
40204;SDS011;26963;42.666;23.366;2023-04-03T04:56:25;20.88;;;8.38;;
40204;SDS011;26963;42.666;23.366;2023-04-03T04:58:50;16.50;;;6.63;;
40204;SDS011;26963;42.666;23.366;2023-04-03T05:01:16;16.90;;;6.75;;
40204;SDS011;26963;42.666;23.366;2023-04-03T05:03:41;17.65;;;7.38;;
40204;SDS011;26963;42.666;23.366;2023-04-03T05:06:07;16.92;;;6.50;;
40204;SDS011;26963;42.666;23.366;2023-04-03T05:08:32;10.07;;;5.93;;
40204;SDS011;26963;42.666;23.366;2023-04-03T05:10:58;9.00;;;5.07;;
40204;SDS011;26963;42.666;23.366;2023-04-03T05:13:24;9.60;;;4.88;;
40204;SDS011;26963;42.666;23.366;2023-04-03T05:15:50;12.40;;;4.75;;
40204;SDS011;26963;42.666;23.366;2023-04-03T05:18:15;13.57;;;4.63;;
40204;SDS011;26963;42.666;23.366;2023-04-03T05:20:41;15.07;;;4.60;;
40204;SDS011;26963;42.666;23.366;2023-04-03T05:23:09;9.35;;;5.40;;
40204;SDS011;26963;42.666;23.366;2023-04-03T05:25:36;16.17;;;5.50;;
40204;SDS011;26963;42.666;23.366;2023-04-03T05:28:03;16.23;;;6.05;;
40204;SDS011;26963;42.666;23.366;2023-04-03T05:30:28;10.38;;;5.70;;
40204;SDS011;26963;42.666;23.366;2023-04-03T05:32:54;11.23;;;5.70;;
40204;SDS011;26963;42.666;23.366;2023-04-03T05:35:20;14.13;;;6.40;;
40204;SDS011;26963;42.666;23.366;2023-04-03T05:37:46;13.27;;;6.40;;
40204;SDS011;26963;42.666;23.366;2023-04-03T05:40:11;13.50;;;6.40;;
40204;SDS011;26963;42.666;23.366;2023-04-03T05:42:37;11.20;;;6.47;;
40204;SDS011;26963;42.666;23.366;2023-04-03T05:45:02;19.75;;;8.07;;
40204;SDS011;26963;42.666;23.366;2023-04-03T05:47:31;16.42;;;7.68;;
40204;SDS011;26963;42.666;23.366;2023-04-03T05:49:57;17.35;;;7.72;;
40204;SDS011;26963;42.666;23.366;2023-04-03T05:52:26;14.13;;;7.28;;
40204;SDS011;26963;42.666;23.366;2023-04-03T05:54:56;14.35;;;8.15;;
40204;SDS011;26963;42.666;23.366;2023-04-03T05:57:22;18.08;;;7.68;;
40204;SDS011;26963;42.666;23.366;2023-04-03T05:59:48;20.25;;;8.60;;
40204;SDS011;26963;42.666;23.366;2023-04-03T06:02:18;15.55;;;8.18;;
40204;SDS011;26963;42.666;23.366;2023-04-03T06:04:45;23.02;;;8.43;;
40204;SDS011;26963;42.666;23.366;2023-04-03T06:07:12;16.63;;;8.30;;
40204;SDS011;26963;42.666;23.366;2023-04-03T06:09:40;18.05;;;8.73;;
40204;SDS011;26963;42.666;23.366;2023-04-03T06:12:06;16.38;;;8.98;;
40204;SDS011;26963;42.666;23.366;2023-04-03T06:14:32;20.08;;;9.75;;
40204;SDS011;26963;42.666;23.366;2023-04-03T06:17:00;23.27;;;11.13;;
40204;SDS011;26963;42.666;23.366;2023-04-03T06:19:26;25.30;;;16.02;;
40204;SDS011;26963;42.666;23.366;2023-04-03T06:21:55;37.65;;;20.05;;
40204;SDS011;26963;42.666;23.366;2023-04-03T06:24:21;42.22;;;21.65;;
40204;SDS011;26963;42.666;23.366;2023-04-03T06:26:49;34.28;;;19.33;;
40204;SDS011;26963;42.666;23.366;2023-04-03T06:29:16;32.08;;;20.13;;
40204;SDS011;26963;42.666;23.366;2023-04-03T06:31:42;32.60;;;20.00;;
40204;SDS011;26963;42.666;23.366;2023-04-03T06:34:08;31.42;;;20.60;;
40204;SDS011;26963;42.666;23.366;2023-04-03T06:36:34;33.42;;;23.20;;
40204;SDS011;26963;42.666;23.366;2023-04-03T06:39:00;33.08;;;24.35;;
40204;SDS011;26963;42.666;23.366;2023-04-03T06:41:26;44.13;;;30.83;;
40204;SDS011;26963;42.666;23.366;2023-04-03T06:43:55;42.17;;;31.60;;
40204;SDS011;26963;42.666;23.366;2023-04-03T06:46:25;42.92;;;34.55;;
40204;SDS011;26963;42.666;23.366;2023-04-03T06:48:52;43.53;;;32.40;;
40204;SDS011;26963;42.666;23.366;2023-04-03T06:51:19;33.58;;;28.65;;
40204;SDS011;26963;42.666;23.366;2023-04-03T06:53:49;32.58;;;21.75;;
40204;SDS011;26963;42.666;23.366;2023-04-03T06:56:15;38.45;;;21.70;;
40204;SDS011;26963;42.666;23.366;2023-04-03T06:58:41;33.47;;;21.27;;
40204;SDS011;26963;42.666;23.366;2023-04-03T07:01:08;32.95;;;21.48;;
40204;SDS011;26963;42.666;23.366;2023-04-03T07:03:38;37.72;;;22.42;;
40204;SDS011;26963;42.666;23.366;2023-04-03T07:06:04;29.20;;;21.10;;
40204;SDS011;26963;42.666;23.366;2023-04-03T07:08:30;32.05;;;21.73;;
40204;SDS011;26963;42.666;23.366;2023-04-03T07:10:56;34.75;;;21.13;;
40204;SDS011;26963;42.666;23.366;2023-04-03T07:13:21;32.38;;;21.38;;
40204;SDS011;26963;42.666;23.366;2023-04-03T07:15:47;30.08;;;20.20;;
40204;SDS011;26963;42.666;23.366;2023-04-03T07:18:13;25.45;;;19.10;;
40204;SDS011;26963;42.666;23.366;2023-04-03T07:20:39;35.05;;;19.40;;
40204;SDS011;26963;42.666;23.366;2023-04-03T07:23:05;32.83;;;19.50;;
40204;SDS011;26963;42.666;23.366;2023-04-03T07:25:31;30.98;;;20.63;;
40204;SDS011;26963;42.666;23.366;2023-04-03T07:27:56;25.65;;;19.00;;
40204;SDS011;26963;42.666;23.366;2023-04-03T07:30:25;31.92;;;19.23;;
40204;SDS011;26963;42.666;23.366;2023-04-03T07:32:51;31.20;;;18.45;;
40204;SDS011;26963;42.666;23.366;2023-04-03T07:35:17;26.40;;;16.75;;
40204;SDS011;26963;42.666;23.366;2023-04-03T07:37:43;24.48;;;13.70;;
40204;SDS011;26963;42.666;23.366;2023-04-03T07:40:09;29.75;;;14.73;;
40204;SDS011;26963;42.666;23.366;2023-04-03T07:42:35;28.55;;;16.33;;
40204;SDS011;26963;42.666;23.366;2023-04-03T07:45:01;30.35;;;17.02;;
40204;SDS011;26963;42.666;23.366;2023-04-03T07:47:30;24.35;;;16.98;;
40204;SDS011;26963;42.666;23.366;2023-04-03T07:49:56;29.75;;;18.15;;
40204;SDS011;26963;42.666;23.366;2023-04-03T07:52:25;33.63;;;20.55;;
40204;SDS011;26963;42.666;23.366;2023-04-03T07:54:50;34.05;;;20.90;;
40204;SDS011;26963;42.666;23.366;2023-04-03T07:57:16;31.80;;;20.15;;
40204;SDS011;26963;42.666;23.366;2023-04-03T07:59:41;31.70;;;20.75;;
40204;SDS011;26963;42.666;23.366;2023-04-03T08:02:10;30.55;;;20.10;;
40204;SDS011;26963;42.666;23.366;2023-04-03T08:04:36;29.83;;;21.05;;
40204;SDS011;26963;42.666;23.366;2023-04-03T08:07:02;30.23;;;20.25;;
40204;SDS011;26963;42.666;23.366;2023-04-03T08:09:28;30.60;;;19.33;;
40204;SDS011;26963;42.666;23.366;2023-04-03T08:11:53;31.17;;;19.23;;
40204;SDS011;26963;42.666;23.366;2023-04-03T08:14:19;26.10;;;18.17;;
40204;SDS011;26963;42.666;23.366;2023-04-03T08:16:46;28.05;;;19.45;;
40204;SDS011;26963;42.666;23.366;2023-04-03T08:19:12;25.90;;;18.30;;
40204;SDS011;26963;42.666;23.366;2023-04-03T08:21:39;24.80;;;17.23;;
40204;SDS011;26963;42.666;23.366;2023-04-03T08:24:07;25.10;;;18.80;;
40204;SDS011;26963;42.666;23.366;2023-04-03T08:26:33;29.00;;;18.05;;
40204;SDS011;26963;42.666;23.366;2023-04-03T08:28:59;28.02;;;15.55;;
40204;SDS011;26963;42.666;23.366;2023-04-03T08:31:25;28.70;;;16.42;;
40204;SDS011;26963;42.666;23.366;2023-04-03T08:33:50;33.58;;;16.38;;
40204;SDS011;26963;42.666;23.366;2023-04-03T08:36:20;26.33;;;15.43;;
40204;SDS011;26963;42.666;23.366;2023-04-03T08:38:48;19.55;;;14.30;;
40204;SDS011;26963;42.666;23.366;2023-04-03T08:41:18;27.05;;;14.88;;
40204;SDS011;26963;42.666;23.366;2023-04-03T08:46:14;21.23;;;14.88;;
40204;SDS011;26963;42.666;23.366;2023-04-03T08:48:44;23.90;;;15.48;;
40204;SDS011;26963;42.666;23.366;2023-04-03T08:51:19;22.98;;;14.57;;
40204;SDS011;26963;42.666;23.366;2023-04-03T08:54:04;22.45;;;14.23;;
40204;SDS011;26963;42.666;23.366;2023-04-03T08:56:34;21.95;;;14.43;;
40204;SDS011;26963;42.666;23.366;2023-04-03T08:59:03;25.90;;;14.30;;
40204;SDS011;26963;42.666;23.366;2023-04-03T09:01:36;22.23;;;14.55;;
40204;SDS011;26963;42.666;23.366;2023-04-03T09:04:09;25.10;;;14.32;;
40204;SDS011;26963;42.666;23.366;2023-04-03T09:06:40;27.52;;;14.88;;
40204;SDS011;26963;42.666;23.366;2023-04-03T09:14:57;21.08;;;13.02;;
40204;SDS011;26963;42.666;23.366;2023-04-03T09:26:11;24.35;;;12.13;;
40204;SDS011;26963;42.666;23.366;2023-04-03T09:28:51;16.73;;;10.67;;
40204;SDS011;26963;42.666;23.366;2023-04-03T09:31:23;19.15;;;10.63;;
40204;SDS011;26963;42.666;23.366;2023-04-03T09:34:00;16.80;;;10.77;;
40204;SDS011;26963;42.666;23.366;2023-04-03T09:36:37;23.05;;;11.20;;
40204;SDS011;26963;42.666;23.366;2023-04-03T09:39:13;20.95;;;11.77;;
40204;SDS011;26963;42.666;23.366;2023-04-03T09:41:54;26.30;;;11.73;;
40204;SDS011;26963;42.666;23.366;2023-04-03T09:44:41;25.65;;;12.40;;
40204;SDS011;26963;42.666;23.366;2023-04-03T09:47:21;23.67;;;11.80;;
40204;SDS011;26963;42.666;23.366;2023-04-03T09:49:50;22.67;;;12.27;;
40204;SDS011;26963;42.666;23.366;2023-04-03T09:52:20;16.25;;;10.15;;
40204;SDS011;26963;42.666;23.366;2023-04-03T09:54:49;17.35;;;10.48;;
40204;SDS011;26963;42.666;23.366;2023-04-03T09:57:15;22.23;;;11.23;;
40204;SDS011;26963;42.666;23.366;2023-04-03T09:59:43;17.20;;;10.95;;
40204;SDS011;26963;42.666;23.366;2023-04-03T10:02:38;17.30;;;10.15;;
40204;SDS011;26963;42.666;23.366;2023-04-03T10:05:24;19.70;;;8.98;;
40204;SDS011;26963;42.666;23.366;2023-04-03T10:07:50;15.07;;;8.02;;
40204;SDS011;26963;42.666;23.366;2023-04-03T10:10:18;15.20;;;7.85;;
40204;SDS011;26963;42.666;23.366;2023-04-03T10:12:47;15.25;;;8.35;;
40204;SDS011;26963;42.666;23.366;2023-04-03T10:15:14;17.63;;;7.30;;
40204;SDS011;26963;42.666;23.366;2023-04-03T10:17:53;15.75;;;7.25;;
40204;SDS011;26963;42.666;23.366;2023-04-03T10:34:05;11.40;;;4.93;;
40204;SDS011;26963;42.666;23.366;2023-04-03T10:36:44;9.73;;;4.75;;
40204;SDS011;26963;42.666;23.366;2023-04-03T10:42:31;8.80;;;4.63;;
40204;SDS011;26963;42.666;23.366;2023-04-03T10:53:08;7.95;;;3.70;;
40204;SDS011;26963;42.666;23.366;2023-04-03T11:01:08;7.03;;;3.33;;
40204;SDS011;26963;42.666;23.366;2023-04-03T11:03:38;5.82;;;3.30;;
40204;SDS011;26963;42.666;23.366;2023-04-03T11:06:09;8.70;;;3.33;;
40204;SDS011;26963;42.666;23.366;2023-04-03T11:11:20;4.47;;;2.90;;
40204;SDS011;26963;42.666;23.366;2023-04-03T11:16:35;4.88;;;2.78;;
40204;SDS011;26963;42.666;23.366;2023-04-03T11:22:09;4.18;;;2.50;;
40204;SDS011;26963;42.666;23.366;2023-04-03T11:24:46;5.30;;;3.97;;
40204;SDS011;26963;42.666;23.366;2023-04-03T11:30:45;4.05;;;2.85;;
40204;SDS011;26963;42.666;23.366;2023-04-03T11:36:30;5.60;;;3.17;;
40204;SDS011;26963;42.666;23.366;2023-04-03T11:39:01;5.53;;;3.33;;
40204;SDS011;26963;42.666;23.366;2023-04-03T11:41:43;4.60;;;2.78;;
40204;SDS011;26963;42.666;23.366;2023-04-03T11:47:02;5.05;;;3.00;;
40204;SDS011;26963;42.666;23.366;2023-04-03T12:03:30;5.43;;;3.60;;
40204;SDS011;26963;42.666;23.366;2023-04-03T12:13:36;4.22;;;2.78;;
40204;SDS011;26963;42.666;23.366;2023-04-03T12:16:30;4.85;;;2.72;;
40204;SDS011;26963;42.666;23.366;2023-04-03T12:37:02;6.05;;;3.25;;
40204;SDS011;26963;42.666;23.366;2023-04-03T12:39:42;11.63;;;4.25;;
40204;SDS011;26963;42.666;23.366;2023-04-03T12:47:48;6.45;;;3.67;;
40204;SDS011;26963;42.666;23.366;2023-04-03T12:55:21;7.93;;;4.57;;
40204;SDS011;26963;42.666;23.366;2023-04-03T12:57:47;7.63;;;4.85;;
40204;SDS011;26963;42.666;23.366;2023-04-03T13:02:59;6.55;;;4.43;;
40204;SDS011;26963;42.666;23.366;2023-04-03T13:05:28;6.35;;;4.43;;
40204;SDS011;26963;42.666;23.366;2023-04-03T13:08:05;7.35;;;4.50;;
40204;SDS011;26963;42.666;23.366;2023-04-03T13:10:43;6.97;;;5.45;;
40204;SDS011;26963;42.666;23.366;2023-04-03T13:13:16;8.77;;;5.73;;
40204;SDS011;26963;42.666;23.366;2023-04-03T13:15:44;6.97;;;4.90;;
40204;SDS011;26963;42.666;23.366;2023-04-03T13:18:24;7.22;;;5.35;;
40204;SDS011;26963;42.666;23.366;2023-04-03T13:21:07;8.60;;;5.70;;
40204;SDS011;26963;42.666;23.366;2023-04-03T13:23:38;9.48;;;6.00;;
40204;SDS011;26963;42.666;23.366;2023-04-03T13:26:07;7.97;;;5.35;;
40204;SDS011;26963;42.666;23.366;2023-04-03T13:28:34;6.90;;;5.07;;
40204;SDS011;26963;42.666;23.366;2023-04-03T13:33:31;9.80;;;6.30;;
40204;SDS011;26963;42.666;23.366;2023-04-03T13:36:11;8.60;;;5.97;;
40204;SDS011;26963;42.666;23.366;2023-04-03T13:38:44;7.72;;;5.43;;
40204;SDS011;26963;42.666;23.366;2023-04-03T13:41:27;9.77;;;6.20;;
40204;SDS011;26963;42.666;23.366;2023-04-03T13:46:51;8.63;;;5.60;;
40204;SDS011;26963;42.666;23.366;2023-04-03T13:49:30;7.10;;;5.82;;
40204;SDS011;26963;42.666;23.366;2023-04-03T13:51:56;6.97;;;5.13;;
40204;SDS011;26963;42.666;23.366;2023-04-03T13:54:35;8.75;;;6.25;;
40204;SDS011;26963;42.666;23.366;2023-04-03T13:57:03;7.63;;;5.03;;
40204;SDS011;26963;42.666;23.366;2023-04-03T13:59:41;7.18;;;5.03;;
40204;SDS011;26963;42.666;23.366;2023-04-03T14:07:02;7.03;;;5.43;;
40204;SDS011;26963;42.666;23.366;2023-04-03T14:09:28;6.88;;;5.45;;
40204;SDS011;26963;42.666;23.366;2023-04-03T14:11:56;5.88;;;5.07;;
40204;SDS011;26963;42.666;23.366;2023-04-03T14:14:31;7.28;;;4.75;;
40204;SDS011;26963;42.666;23.366;2023-04-03T14:16:59;7.68;;;5.72;;
40204;SDS011;26963;42.666;23.366;2023-04-03T14:19:30;7.90;;;4.32;;
40204;SDS011;26963;42.666;23.366;2023-04-03T14:22:00;8.48;;;4.22;;
40204;SDS011;26963;42.666;23.366;2023-04-03T14:24:36;7.43;;;4.65;;
40204;SDS011;26963;42.666;23.366;2023-04-03T14:27:02;6.20;;;3.75;;
40204;SDS011;26963;42.666;23.366;2023-04-03T14:29:30;6.60;;;4.70;;
40204;SDS011;26963;42.666;23.366;2023-04-03T14:31:56;5.57;;;4.07;;
40204;SDS011;26963;42.666;23.366;2023-04-03T14:34:21;6.60;;;3.83;;
40204;SDS011;26963;42.666;23.366;2023-04-03T14:36:47;5.75;;;4.00;;
40204;SDS011;26963;42.666;23.366;2023-04-03T14:39:16;5.65;;;3.97;;
40204;SDS011;26963;42.666;23.366;2023-04-03T14:41:43;5.03;;;3.72;;
40204;SDS011;26963;42.666;23.366;2023-04-03T14:44:10;7.47;;;3.67;;
40204;SDS011;26963;42.666;23.366;2023-04-03T14:46:38;5.93;;;3.17;;
40204;SDS011;26963;42.666;23.366;2023-04-03T14:49:12;4.50;;;2.97;;
40204;SDS011;26963;42.666;23.366;2023-04-03T14:51:40;4.80;;;2.70;;
40204;SDS011;26963;42.666;23.366;2023-04-03T14:54:05;5.15;;;3.40;;
40204;SDS011;26963;42.666;23.366;2023-04-03T14:56:38;7.18;;;3.03;;
40204;SDS011;26963;42.666;23.366;2023-04-03T14:59:04;6.70;;;3.70;;
40204;SDS011;26963;42.666;23.366;2023-04-03T15:01:34;3.45;;;2.60;;
40204;SDS011;26963;42.666;23.366;2023-04-03T15:04:00;3.60;;;2.70;;
40204;SDS011;26963;42.666;23.366;2023-04-03T15:06:26;6.32;;;2.60;;
40204;SDS011;26963;42.666;23.366;2023-04-03T15:08:52;5.70;;;3.70;;
40204;SDS011;26963;42.666;23.366;2023-04-03T15:11:17;6.45;;;2.90;;
40204;SDS011;26963;42.666;23.366;2023-04-03T15:13:43;3.72;;;2.80;;
40204;SDS011;26963;42.666;23.366;2023-04-03T15:16:16;3.78;;;2.58;;
40204;SDS011;26963;42.666;23.366;2023-04-03T15:18:43;4.53;;;2.88;;
40204;SDS011;26963;42.666;23.366;2023-04-03T15:21:10;4.53;;;3.00;;
40204;SDS011;26963;42.666;23.366;2023-04-03T15:23:36;6.72;;;3.17;;
40204;SDS011;26963;42.666;23.366;2023-04-03T15:26:01;5.57;;;2.90;;
40204;SDS011;26963;42.666;23.366;2023-04-03T15:30:55;4.72;;;3.00;;
40204;SDS011;26963;42.666;23.366;2023-04-03T15:33:21;7.68;;;3.08;;
40204;SDS011;26963;42.666;23.366;2023-04-03T15:35:47;5.55;;;3.20;;
40204;SDS011;26963;42.666;23.366;2023-04-03T15:38:13;5.80;;;3.10;;
40204;SDS011;26963;42.666;23.366;2023-04-03T15:40:39;5.68;;;3.00;;
40204;SDS011;26963;42.666;23.366;2023-04-03T15:43:05;6.18;;;3.13;;
40204;SDS011;26963;42.666;23.366;2023-04-03T15:45:32;4.13;;;3.22;;
40204;SDS011;26963;42.666;23.366;2023-04-03T15:48:01;4.97;;;2.67;;
40204;SDS011;26963;42.666;23.366;2023-04-03T15:50:30;5.82;;;3.00;;
40204;SDS011;26963;42.666;23.366;2023-04-03T15:52:56;3.80;;;2.78;;
40204;SDS011;26963;42.666;23.366;2023-04-03T15:55:27;5.00;;;3.08;;
40204;SDS011;26963;42.666;23.366;2023-04-03T15:58:00;4.38;;;3.15;;
40204;SDS011;26963;42.666;23.366;2023-04-03T16:00:26;4.85;;;3.00;;
40204;SDS011;26963;42.666;23.366;2023-04-03T16:02:57;6.82;;;3.35;;
40204;SDS011;26963;42.666;23.366;2023-04-03T16:05:26;4.35;;;3.42;;
40204;SDS011;26963;42.666;23.366;2023-04-03T16:07:54;4.38;;;3.38;;
40204;SDS011;26963;42.666;23.366;2023-04-03T16:10:20;5.68;;;3.72;;
40204;SDS011;26963;42.666;23.366;2023-04-03T16:12:46;5.88;;;3.55;;
40204;SDS011;26963;42.666;23.366;2023-04-03T16:15:12;5.53;;;3.72;;
40204;SDS011;26963;42.666;23.366;2023-04-03T16:17:37;5.25;;;3.92;;
40204;SDS011;26963;42.666;23.366;2023-04-03T16:20:06;5.60;;;3.70;;
40204;SDS011;26963;42.666;23.366;2023-04-03T16:22:33;4.95;;;3.58;;
40204;SDS011;26963;42.666;23.366;2023-04-03T16:24:59;7.93;;;6.30;;
40204;SDS011;26963;42.666;23.366;2023-04-03T16:27:24;5.90;;;4.20;;
40204;SDS011;26963;42.666;23.366;2023-04-03T16:29:55;6.72;;;4.50;;
40204;SDS011;26963;42.666;23.366;2023-04-03T16:32:21;5.53;;;4.07;;
40204;SDS011;26963;42.666;23.366;2023-04-03T16:34:48;8.32;;;4.10;;
40204;SDS011;26963;42.666;23.366;2023-04-03T16:37:14;6.75;;;4.13;;
40204;SDS011;26963;42.666;23.366;2023-04-03T16:39:40;7.57;;;5.03;;
40204;SDS011;26963;42.666;23.366;2023-04-03T16:42:06;5.90;;;4.15;;
40204;SDS011;26963;42.666;23.366;2023-04-03T16:44:34;7.43;;;4.32;;
40204;SDS011;26963;42.666;23.366;2023-04-03T16:47:00;5.63;;;4.22;;
40204;SDS011;26963;42.666;23.366;2023-04-03T16:49:26;7.13;;;4.93;;